sensor_id;sensor_type;location;lat;lon;timestamp;temperature;humidity
31747;DHT22;18319;48.974;8.462;2023-06-26T00:01:39;18.60;71.30
31747;DHT22;18319;48.974;8.462;2023-06-26T00:04:06;18.60;71.80
31747;DHT22;18319;48.974;8.462;2023-06-26T00:06:33;18.50;73.30
31747;DHT22;18319;48.974;8.462;2023-06-26T00:09:00;18.40;74.00
31747;DHT22;18319;48.974;8.462;2023-06-26T00:11:27;18.40;74.30
31747;DHT22;18319;48.974;8.462;2023-06-26T00:13:56;18.40;74.40
31747;DHT22;18319;48.974;8.462;2023-06-26T00:16:24;18.40;74.90
31747;DHT22;18319;48.974;8.462;2023-06-26T00:18:51;18.40;74.60
31747;DHT22;18319;48.974;8.462;2023-06-26T00:21:17;18.40;75.40
31747;DHT22;18319;48.974;8.462;2023-06-26T00:23:44;18.40;75.80
31747;DHT22;18319;48.974;8.462;2023-06-26T00:26:11;18.40;75.80
31747;DHT22;18319;48.974;8.462;2023-06-26T00:28:38;18.40;77.30
31747;DHT22;18319;48.974;8.462;2023-06-26T00:31:04;18.30;76.90
31747;DHT22;18319;48.974;8.462;2023-06-26T00:33:33;18.30;77.50
31747;DHT22;18319;48.974;8.462;2023-06-26T00:35:59;18.20;78.40
31747;DHT22;18319;48.974;8.462;2023-06-26T00:38:26;18.20;78.80
31747;DHT22;18319;48.974;8.462;2023-06-26T00:40:53;18.20;79.30
31747;DHT22;18319;48.974;8.462;2023-06-26T00:43:21;18.20;79.90
31747;DHT22;18319;48.974;8.462;2023-06-26T00:45:48;18.10;80.20
31747;DHT22;18319;48.974;8.462;2023-06-26T00:48:15;18.10;80.90
31747;DHT22;18319;48.974;8.462;2023-06-26T00:50:43;18.10;81.00
31747;DHT22;18319;48.974;8.462;2023-06-26T00:53:11;18.10;81.30
31747;DHT22;18319;48.974;8.462;2023-06-26T00:55:37;18.00;81.40
31747;DHT22;18319;48.974;8.462;2023-06-26T00:58:05;18.00;82.10
31747;DHT22;18319;48.974;8.462;2023-06-26T01:00:31;18.00;82.50
31747;DHT22;18319;48.974;8.462;2023-06-26T01:02:58;17.90;83.30
31747;DHT22;18319;48.974;8.462;2023-06-26T01:05:25;17.90;84.30
31747;DHT22;18319;48.974;8.462;2023-06-26T01:07:54;17.80;84.50
31747;DHT22;18319;48.974;8.462;2023-06-26T01:10:22;17.80;85.00
31747;DHT22;18319;48.974;8.462;2023-06-26T01:12:49;17.80;85.10
31747;DHT22;18319;48.974;8.462;2023-06-26T01:15:16;17.80;84.80
31747;DHT22;18319;48.974;8.462;2023-06-26T01:17:43;17.70;84.90
31747;DHT22;18319;48.974;8.462;2023-06-26T01:20:13;17.70;85.10
31747;DHT22;18319;48.974;8.462;2023-06-26T01:22:47;17.70;85.60
31747;DHT22;18319;48.974;8.462;2023-06-26T01:25:23;17.60;85.20
31747;DHT22;18319;48.974;8.462;2023-06-26T01:27:55;17.60;85.30
31747;DHT22;18319;48.974;8.462;2023-06-26T01:30:23;17.60;84.70
31747;DHT22;18319;48.974;8.462;2023-06-26T01:32:50;17.60;84.20
31747;DHT22;18319;48.974;8.462;2023-06-26T01:35:17;17.70;83.00
31747;DHT22;18319;48.974;8.462;2023-06-26T01:37:44;17.70;82.90
31747;DHT22;18319;48.974;8.462;2023-06-26T01:40:11;17.70;82.40
31747;DHT22;18319;48.974;8.462;2023-06-26T01:42:38;17.70;82.10
31747;DHT22;18319;48.974;8.462;2023-06-26T01:45:12;17.80;81.30
31747;DHT22;18319;48.974;8.462;2023-06-26T01:47:41;17.80;80.90
31747;DHT22;18319;48.974;8.462;2023-06-26T01:50:12;17.80;81.10
31747;DHT22;18319;48.974;8.462;2023-06-26T01:52:42;17.70;81.00
31747;DHT22;18319;48.974;8.462;2023-06-26T01:55:15;17.70;81.30
31747;DHT22;18319;48.974;8.462;2023-06-26T01:57:44;17.60;81.90
31747;DHT22;18319;48.974;8.462;2023-06-26T02:00:14;17.60;82.50
31747;DHT22;18319;48.974;8.462;2023-06-26T02:02:43;17.50;83.20
31747;DHT22;18319;48.974;8.462;2023-06-26T02:05:11;17.50;83.60
31747;DHT22;18319;48.974;8.462;2023-06-26T02:07:38;17.50;84.10
31747;DHT22;18319;48.974;8.462;2023-06-26T02:10:06;17.40;85.00
31747;DHT22;18319;48.974;8.462;2023-06-26T02:12:33;17.40;85.30
31747;DHT22;18319;48.974;8.462;2023-06-26T02:15:01;17.40;85.60
31747;DHT22;18319;48.974;8.462;2023-06-26T02:17:29;17.30;85.20
31747;DHT22;18319;48.974;8.462;2023-06-26T02:19:56;17.40;84.70
31747;DHT22;18319;48.974;8.462;2023-06-26T02:22:22;17.40;84.20
31747;DHT22;18319;48.974;8.462;2023-06-26T02:24:49;17.50;84.10
31747;DHT22;18319;48.974;8.462;2023-06-26T02:27:16;17.40;84.20
31747;DHT22;18319;48.974;8.462;2023-06-26T02:29:43;17.40;85.00
31747;DHT22;18319;48.974;8.462;2023-06-26T02:32:09;17.40;85.70
31747;DHT22;18319;48.974;8.462;2023-06-26T02:34:37;17.40;85.30
31747;DHT22;18319;48.974;8.462;2023-06-26T02:37:04;17.40;85.20
31747;DHT22;18319;48.974;8.462;2023-06-26T02:39:32;17.40;85.10
31747;DHT22;18319;48.974;8.462;2023-06-26T02:41:59;17.40;85.10
31747;DHT22;18319;48.974;8.462;2023-06-26T02:44:26;17.40;85.00
31747;DHT22;18319;48.974;8.462;2023-06-26T02:46:53;17.50;85.10
31747;DHT22;18319;48.974;8.462;2023-06-26T02:49:19;17.50;84.40
31747;DHT22;18319;48.974;8.462;2023-06-26T02:51:47;17.60;83.80
31747;DHT22;18319;48.974;8.462;2023-06-26T02:54:14;17.60;83.30
31747;DHT22;18319;48.974;8.462;2023-06-26T02:56:41;17.60;83.40
31747;DHT22;18319;48.974;8.462;2023-06-26T02:59:08;17.60;83.30
31747;DHT22;18319;48.974;8.462;2023-06-26T03:01:35;17.50;84.50
31747;DHT22;18319;48.974;8.462;2023-06-26T03:04:01;17.50;85.30
31747;DHT22;18319;48.974;8.462;2023-06-26T03:06:28;17.50;85.90
31747;DHT22;18319;48.974;8.462;2023-06-26T03:08:56;17.50;86.40
31747;DHT22;18319;48.974;8.462;2023-06-26T03:11:23;17.50;87.00
31747;DHT22;18319;48.974;8.462;2023-06-26T03:13:49;17.50;86.30
31747;DHT22;18319;48.974;8.462;2023-06-26T03:16:16;17.50;86.40
31747;DHT22;18319;48.974;8.462;2023-06-26T03:18:43;17.40;86.20
31747;DHT22;18319;48.974;8.462;2023-06-26T03:21:10;17.50;86.10
31747;DHT22;18319;48.974;8.462;2023-06-26T03:23:39;17.50;86.10
31747;DHT22;18319;48.974;8.462;2023-06-26T03:26:07;17.50;86.30
31747;DHT22;18319;48.974;8.462;2023-06-26T03:28:34;17.50;86.70
31747;DHT22;18319;48.974;8.462;2023-06-26T03:31:00;17.50;86.80
31747;DHT22;18319;48.974;8.462;2023-06-26T03:33:27;17.40;87.40
31747;DHT22;18319;48.974;8.462;2023-06-26T03:35:54;17.50;87.30
31747;DHT22;18319;48.974;8.462;2023-06-26T03:38:21;17.40;86.90
31747;DHT22;18319;48.974;8.462;2023-06-26T03:40:49;17.40;86.80
31747;DHT22;18319;48.974;8.462;2023-06-26T03:43:17;17.40;87.10
31747;DHT22;18319;48.974;8.462;2023-06-26T03:45:44;17.50;86.70
31747;DHT22;18319;48.974;8.462;2023-06-26T03:48:11;17.50;86.50
31747;DHT22;18319;48.974;8.462;2023-06-26T03:50:38;17.50;86.50
31747;DHT22;18319;48.974;8.462;2023-06-26T03:53:05;17.50;86.90
31747;DHT22;18319;48.974;8.462;2023-06-26T03:55:32;17.50;87.30
31747;DHT22;18319;48.974;8.462;2023-06-26T03:57:59;17.50;87.20
31747;DHT22;18319;48.974;8.462;2023-06-26T04:00:27;17.50;87.80
31747;DHT22;18319;48.974;8.462;2023-06-26T04:02:54;17.50;89.20
31747;DHT22;18319;48.974;8.462;2023-06-26T04:05:21;17.50;88.00
31747;DHT22;18319;48.974;8.462;2023-06-26T04:07:50;17.50;88.30
31747;DHT22;18319;48.974;8.462;2023-06-26T04:10:16;17.50;89.20
31747;DHT22;18319;48.974;8.462;2023-06-26T04:12:43;17.50;90.10
31747;DHT22;18319;48.974;8.462;2023-06-26T04:15:10;17.50;90.10
31747;DHT22;18319;48.974;8.462;2023-06-26T04:17:38;17.50;90.00
31747;DHT22;18319;48.974;8.462;2023-06-26T04:20:06;17.50;90.00
31747;DHT22;18319;48.974;8.462;2023-06-26T04:22:34;17.60;90.30
31747;DHT22;18319;48.974;8.462;2023-06-26T04:25:03;17.50;89.80
31747;DHT22;18319;48.974;8.462;2023-06-26T04:27:30;17.50;90.70
31747;DHT22;18319;48.974;8.462;2023-06-26T04:29:56;17.50;91.20
31747;DHT22;18319;48.974;8.462;2023-06-26T04:32:26;17.50;91.70
31747;DHT22;18319;48.974;8.462;2023-06-26T04:34:54;17.60;91.70
31747;DHT22;18319;48.974;8.462;2023-06-26T04:37:22;17.60;91.40
31747;DHT22;18319;48.974;8.462;2023-06-26T04:39:50;17.80;90.40
31747;DHT22;18319;48.974;8.462;2023-06-26T04:42:17;17.90;89.00
31747;DHT22;18319;48.974;8.462;2023-06-26T04:44:44;18.10;85.80
31747;DHT22;18319;48.974;8.462;2023-06-26T04:47:11;18.20;84.00
31747;DHT22;18319;48.974;8.462;2023-06-26T04:49:40;18.30;84.60
31747;DHT22;18319;48.974;8.462;2023-06-26T04:52:10;18.40;85.30
31747;DHT22;18319;48.974;8.462;2023-06-26T04:54:38;18.50;84.30
31747;DHT22;18319;48.974;8.462;2023-06-26T04:57:05;18.70;85.40
31747;DHT22;18319;48.974;8.462;2023-06-26T04:59:34;18.70;84.90
31747;DHT22;18319;48.974;8.462;2023-06-26T05:02:01;18.80;85.50
31747;DHT22;18319;48.974;8.462;2023-06-26T05:04:27;18.90;84.00
31747;DHT22;18319;48.974;8.462;2023-06-26T05:06:54;19.00;85.30
31747;DHT22;18319;48.974;8.462;2023-06-26T05:09:22;19.10;85.20
31747;DHT22;18319;48.974;8.462;2023-06-26T05:11:49;19.30;83.80
31747;DHT22;18319;48.974;8.462;2023-06-26T05:14:15;19.40;82.80
31747;DHT22;18319;48.974;8.462;2023-06-26T05:16:42;19.40;83.80
31747;DHT22;18319;48.974;8.462;2023-06-26T05:19:09;19.40;86.00
31747;DHT22;18319;48.974;8.462;2023-06-26T05:21:36;19.50;85.50
31747;DHT22;18319;48.974;8.462;2023-06-26T05:24:03;19.50;85.40
31747;DHT22;18319;48.974;8.462;2023-06-26T05:26:33;19.60;87.90
31747;DHT22;18319;48.974;8.462;2023-06-26T05:29:00;19.70;86.70
31747;DHT22;18319;48.974;8.462;2023-06-26T05:31:27;19.70;87.00
31747;DHT22;18319;48.974;8.462;2023-06-26T05:33:55;19.70;86.80
31747;DHT22;18319;48.974;8.462;2023-06-26T05:36:24;19.80;88.50
31747;DHT22;18319;48.974;8.462;2023-06-26T05:38:52;19.90;86.60
31747;DHT22;18319;48.974;8.462;2023-06-26T05:41:19;19.90;86.60
31747;DHT22;18319;48.974;8.462;2023-06-26T05:43:47;20.00;87.20
31747;DHT22;18319;48.974;8.462;2023-06-26T05:46:14;20.00;87.50
31747;DHT22;18319;48.974;8.462;2023-06-26T05:48:40;20.10;89.40
31747;DHT22;18319;48.974;8.462;2023-06-26T05:51:08;20.10;87.00
31747;DHT22;18319;48.974;8.462;2023-06-26T05:53:35;20.10;86.20
31747;DHT22;18319;48.974;8.462;2023-06-26T05:56:02;20.20;88.10
31747;DHT22;18319;48.974;8.462;2023-06-26T05:58:30;20.20;89.10
31747;DHT22;18319;48.974;8.462;2023-06-26T06:00:58;20.40;86.60
31747;DHT22;18319;48.974;8.462;2023-06-26T06:05:55;20.90;85.00
31747;DHT22;18319;48.974;8.462;2023-06-26T06:08:21;20.80;85.40
31747;DHT22;18319;48.974;8.462;2023-06-26T06:10:48;20.80;83.60
31747;DHT22;18319;48.974;8.462;2023-06-26T06:13:15;20.80;84.50
31747;DHT22;18319;48.974;8.462;2023-06-26T06:15:42;20.80;85.80
31747;DHT22;18319;48.974;8.462;2023-06-26T06:18:10;20.90;83.80
31747;DHT22;18319;48.974;8.462;2023-06-26T06:20:36;20.90;83.70
31747;DHT22;18319;48.974;8.462;2023-06-26T06:23:03;21.00;83.60
31747;DHT22;18319;48.974;8.462;2023-06-26T06:25:30;21.00;85.00
31747;DHT22;18319;48.974;8.462;2023-06-26T06:27:57;21.00;85.00
31747;DHT22;18319;48.974;8.462;2023-06-26T06:30:23;21.10;84.00
31747;DHT22;18319;48.974;8.462;2023-06-26T06:32:50;21.20;83.60
31747;DHT22;18319;48.974;8.462;2023-06-26T06:35:19;21.30;81.30
31747;DHT22;18319;48.974;8.462;2023-06-26T06:37:46;21.50;77.80
31747;DHT22;18319;48.974;8.462;2023-06-26T06:40:13;21.70;79.50
31747;DHT22;18319;48.974;8.462;2023-06-26T06:42:39;21.80;78.10
31747;DHT22;18319;48.974;8.462;2023-06-26T06:45:07;21.90;77.40
31747;DHT22;18319;48.974;8.462;2023-06-26T06:47:34;22.00;75.50
31747;DHT22;18319;48.974;8.462;2023-06-26T06:50:01;22.20;74.50
31747;DHT22;18319;48.974;8.462;2023-06-26T06:52:36;22.30;75.40
31747;DHT22;18319;48.974;8.462;2023-06-26T06:55:03;22.40;73.70
31747;DHT22;18319;48.974;8.462;2023-06-26T06:57:34;22.50;70.70
31747;DHT22;18319;48.974;8.462;2023-06-26T07:00:03;22.60;70.70
31747;DHT22;18319;48.974;8.462;2023-06-26T07:02:30;22.70;71.10
31747;DHT22;18319;48.974;8.462;2023-06-26T07:04:57;22.80;71.70
31747;DHT22;18319;48.974;8.462;2023-06-26T07:07:28;22.90;72.60
31747;DHT22;18319;48.974;8.462;2023-06-26T07:09:58;23.00;70.80
31747;DHT22;18319;48.974;8.462;2023-06-26T07:12:24;23.10;71.50
31747;DHT22;18319;48.974;8.462;2023-06-26T07:14:51;23.30;70.80
31747;DHT22;18319;48.974;8.462;2023-06-26T07:17:19;23.30;72.20
31747;DHT22;18319;48.974;8.462;2023-06-26T07:19:46;23.40;70.80
31747;DHT22;18319;48.974;8.462;2023-06-26T07:22:13;23.50;70.70
31747;DHT22;18319;48.974;8.462;2023-06-26T07:24:40;23.60;71.20
31747;DHT22;18319;48.974;8.462;2023-06-26T07:27:08;23.70;69.60
31747;DHT22;18319;48.974;8.462;2023-06-26T07:29:34;23.80;70.40
31747;DHT22;18319;48.974;8.462;2023-06-26T07:32:01;24.00;71.40
31747;DHT22;18319;48.974;8.462;2023-06-26T07:34:28;24.10;68.40
31747;DHT22;18319;48.974;8.462;2023-06-26T07:36:55;24.20;68.10
31747;DHT22;18319;48.974;8.462;2023-06-26T07:39:21;24.30;68.40
31747;DHT22;18319;48.974;8.462;2023-06-26T07:41:48;24.40;70.00
31747;DHT22;18319;48.974;8.462;2023-06-26T07:44:16;24.60;68.30
31747;DHT22;18319;48.974;8.462;2023-06-26T07:46:43;24.80;69.00
31747;DHT22;18319;48.974;8.462;2023-06-26T07:49:10;25.10;70.70
31747;DHT22;18319;48.974;8.462;2023-06-26T07:51:37;25.30;65.50
31747;DHT22;18319;48.974;8.462;2023-06-26T07:54:04;25.80;63.40
31747;DHT22;18319;48.974;8.462;2023-06-26T07:56:30;26.20;62.70
31747;DHT22;18319;48.974;8.462;2023-06-26T07:58:57;27.00;60.40
31747;DHT22;18319;48.974;8.462;2023-06-26T08:01:27;27.90;56.50
31747;DHT22;18319;48.974;8.462;2023-06-26T08:03:55;28.40;54.70
31747;DHT22;18319;48.974;8.462;2023-06-26T08:06:22;28.90;52.60
31747;DHT22;18319;48.974;8.462;2023-06-26T08:08:49;29.60;49.70
31747;DHT22;18319;48.974;8.462;2023-06-26T08:11:16;29.80;49.80
31747;DHT22;18319;48.974;8.462;2023-06-26T08:13:43;29.80;48.90
31747;DHT22;18319;48.974;8.462;2023-06-26T08:16:10;30.40;45.50
31747;DHT22;18319;48.974;8.462;2023-06-26T08:18:38;31.00;45.90
31747;DHT22;18319;48.974;8.462;2023-06-26T08:21:05;31.10;43.90
31747;DHT22;18319;48.974;8.462;2023-06-26T08:23:32;30.90;42.80
31747;DHT22;18319;48.974;8.462;2023-06-26T08:25:58;31.20;45.50
31747;DHT22;18319;48.974;8.462;2023-06-26T08:28:25;31.30;44.90
31747;DHT22;18319;48.974;8.462;2023-06-26T08:30:52;30.80;44.40
31747;DHT22;18319;48.974;8.462;2023-06-26T08:33:20;31.00;43.00
31747;DHT22;18319;48.974;8.462;2023-06-26T08:35:48;31.40;43.90
31747;DHT22;18319;48.974;8.462;2023-06-26T08:38:14;31.80;42.30
31747;DHT22;18319;48.974;8.462;2023-06-26T08:40:41;31.20;43.70
31747;DHT22;18319;48.974;8.462;2023-06-26T08:43:08;30.90;43.10
31747;DHT22;18319;48.974;8.462;2023-06-26T08:45:35;30.70;43.50
31747;DHT22;18319;48.974;8.462;2023-06-26T08:48:03;30.60;44.30
31747;DHT22;18319;48.974;8.462;2023-06-26T08:50:34;30.30;46.30
31747;DHT22;18319;48.974;8.462;2023-06-26T08:53:07;29.90;45.70
31747;DHT22;18319;48.974;8.462;2023-06-26T08:55:38;30.20;45.60
31747;DHT22;18319;48.974;8.462;2023-06-26T08:58:07;30.20;45.80
31747;DHT22;18319;48.974;8.462;2023-06-26T09:00:34;30.10;46.40
31747;DHT22;18319;48.974;8.462;2023-06-26T09:03:03;30.70;46.20
31747;DHT22;18319;48.974;8.462;2023-06-26T09:05:30;31.00;44.50
31747;DHT22;18319;48.974;8.462;2023-06-26T09:07:58;31.10;43.90
31747;DHT22;18319;48.974;8.462;2023-06-26T09:10:26;30.70;45.30
31747;DHT22;18319;48.974;8.462;2023-06-26T09:12:55;30.90;46.80
31747;DHT22;18319;48.974;8.462;2023-06-26T09:15:22;31.20;45.20
31747;DHT22;18319;48.974;8.462;2023-06-26T09:17:50;31.10;44.50
31747;DHT22;18319;48.974;8.462;2023-06-26T09:20:16;31.00;44.20
31747;DHT22;18319;48.974;8.462;2023-06-26T09:22:47;31.20;45.40
31747;DHT22;18319;48.974;8.462;2023-06-26T09:25:14;31.10;45.60
31747;DHT22;18319;48.974;8.462;2023-06-26T09:27:43;31.00;44.70
31747;DHT22;18319;48.974;8.462;2023-06-26T09:30:10;31.10;45.20
31747;DHT22;18319;48.974;8.462;2023-06-26T09:32:37;31.70;44.60
31747;DHT22;18319;48.974;8.462;2023-06-26T09:35:05;32.10;44.60
31747;DHT22;18319;48.974;8.462;2023-06-26T09:37:32;31.90;43.50
31747;DHT22;18319;48.974;8.462;2023-06-26T09:40:00;32.40;46.50
31747;DHT22;18319;48.974;8.462;2023-06-26T09:42:27;32.30;43.50
31747;DHT22;18319;48.974;8.462;2023-06-26T09:44:57;32.20;43.40
31747;DHT22;18319;48.974;8.462;2023-06-26T09:47:24;31.70;42.70
31747;DHT22;18319;48.974;8.462;2023-06-26T09:49:51;31.70;43.90
31747;DHT22;18319;48.974;8.462;2023-06-26T09:52:18;31.30;45.60
31747;DHT22;18319;48.974;8.462;2023-06-26T09:54:45;30.70;46.20
31747;DHT22;18319;48.974;8.462;2023-06-26T09:57:13;30.30;45.60
31747;DHT22;18319;48.974;8.462;2023-06-26T09:59:42;29.90;46.40
31747;DHT22;18319;48.974;8.462;2023-06-26T10:02:11;29.80;49.20
31747;DHT22;18319;48.974;8.462;2023-06-26T10:04:38;29.80;47.50
31747;DHT22;18319;48.974;8.462;2023-06-26T10:07:06;29.80;47.90
31747;DHT22;18319;48.974;8.462;2023-06-26T10:09:36;29.80;48.60
31747;DHT22;18319;48.974;8.462;2023-06-26T10:12:07;29.70;46.90
31747;DHT22;18319;48.974;8.462;2023-06-26T10:14:38;29.70;48.00
31747;DHT22;18319;48.974;8.462;2023-06-26T10:17:09;29.70;47.80
31747;DHT22;18319;48.974;8.462;2023-06-26T10:19:38;29.40;49.60
31747;DHT22;18319;48.974;8.462;2023-06-26T10:22:07;29.70;50.00
31747;DHT22;18319;48.974;8.462;2023-06-26T10:24:35;29.30;49.50
31747;DHT22;18319;48.974;8.462;2023-06-26T10:27:08;29.30;50.00
31747;DHT22;18319;48.974;8.462;2023-06-26T10:29:36;29.40;49.10
31747;DHT22;18319;48.974;8.462;2023-06-26T10:32:04;29.40;49.90
31747;DHT22;18319;48.974;8.462;2023-06-26T10:34:36;29.10;49.80
31747;DHT22;18319;48.974;8.462;2023-06-26T10:37:03;29.20;50.20
31747;DHT22;18319;48.974;8.462;2023-06-26T10:39:46;29.10;51.40
31747;DHT22;18319;48.974;8.462;2023-06-26T10:42:13;29.00;51.50
31747;DHT22;18319;48.974;8.462;2023-06-26T10:44:41;29.10;50.80
31747;DHT22;18319;48.974;8.462;2023-06-26T10:47:09;29.00;52.50
31747;DHT22;18319;48.974;8.462;2023-06-26T10:49:38;29.10;53.20
31747;DHT22;18319;48.974;8.462;2023-06-26T10:52:06;29.20;52.10
31747;DHT22;18319;48.974;8.462;2023-06-26T10:54:33;29.20;52.70
31747;DHT22;18319;48.974;8.462;2023-06-26T10:57:01;29.10;49.80
31747;DHT22;18319;48.974;8.462;2023-06-26T10:59:32;29.50;51.60
31747;DHT22;18319;48.974;8.462;2023-06-26T11:01:59;29.80;49.40
31747;DHT22;18319;48.974;8.462;2023-06-26T11:04:42;29.90;50.00
31747;DHT22;18319;48.974;8.462;2023-06-26T11:07:18;30.30;48.90
31747;DHT22;18319;48.974;8.462;2023-06-26T11:09:55;30.10;49.40
31747;DHT22;18319;48.974;8.462;2023-06-26T11:12:36;30.20;49.90
31747;DHT22;18319;48.974;8.462;2023-06-26T11:15:04;30.30;50.50
31747;DHT22;18319;48.974;8.462;2023-06-26T11:17:31;29.70;49.80
31747;DHT22;18319;48.974;8.462;2023-06-26T11:19:59;29.50;50.10
31747;DHT22;18319;48.974;8.462;2023-06-26T11:22:27;29.70;49.50
31747;DHT22;18319;48.974;8.462;2023-06-26T11:24:54;29.80;50.00
31747;DHT22;18319;48.974;8.462;2023-06-26T11:27:20;29.40;49.80
31747;DHT22;18319;48.974;8.462;2023-06-26T11:29:49;29.30;50.40
31747;DHT22;18319;48.974;8.462;2023-06-26T11:32:16;29.40;50.30
31747;DHT22;18319;48.974;8.462;2023-06-26T11:34:44;29.40;51.00
31747;DHT22;18319;48.974;8.462;2023-06-26T11:37:12;29.10;49.60
31747;DHT22;18319;48.974;8.462;2023-06-26T11:39:42;29.20;49.30
31747;DHT22;18319;48.974;8.462;2023-06-26T11:42:11;29.00;49.40
31747;DHT22;18319;48.974;8.462;2023-06-26T11:44:41;28.80;49.30
31747;DHT22;18319;48.974;8.462;2023-06-26T11:47:12;29.00;50.70
31747;DHT22;18319;48.974;8.462;2023-06-26T11:49:42;29.00;49.20
31747;DHT22;18319;48.974;8.462;2023-06-26T11:52:09;29.00;49.50
31747;DHT22;18319;48.974;8.462;2023-06-26T11:54:40;29.20;46.10
31747;DHT22;18319;48.974;8.462;2023-06-26T11:57:06;29.00;47.40
31747;DHT22;18319;48.974;8.462;2023-06-26T11:59:35;29.20;47.40
31747;DHT22;18319;48.974;8.462;2023-06-26T12:02:07;29.00;49.60
31747;DHT22;18319;48.974;8.462;2023-06-26T12:04:36;28.80;44.50
31747;DHT22;18319;48.974;8.462;2023-06-26T12:07:06;29.10;46.60
31747;DHT22;18319;48.974;8.462;2023-06-26T12:09:38;29.30;45.80
31747;DHT22;18319;48.974;8.462;2023-06-26T12:12:07;29.30;45.70
31747;DHT22;18319;48.974;8.462;2023-06-26T12:14:34;29.20;44.10
31747;DHT22;18319;48.974;8.462;2023-06-26T12:17:05;29.00;45.80
31747;DHT22;18319;48.974;8.462;2023-06-26T12:19:34;28.70;45.50
31747;DHT22;18319;48.974;8.462;2023-06-26T12:22:06;28.70;45.90
31747;DHT22;18319;48.974;8.462;2023-06-26T12:24:34;28.80;45.20
31747;DHT22;18319;48.974;8.462;2023-06-26T12:27:08;28.70;42.90
31747;DHT22;18319;48.974;8.462;2023-06-26T12:29:35;28.60;43.50
31747;DHT22;18319;48.974;8.462;2023-06-26T12:32:02;28.40;43.40
31747;DHT22;18319;48.974;8.462;2023-06-26T12:34:31;28.50;43.70
31747;DHT22;18319;48.974;8.462;2023-06-26T12:37:01;28.40;43.80
31747;DHT22;18319;48.974;8.462;2023-06-26T12:39:29;28.30;43.60
31747;DHT22;18319;48.974;8.462;2023-06-26T12:41:57;28.40;43.70
31747;DHT22;18319;48.974;8.462;2023-06-26T12:44:30;28.40;42.90
31747;DHT22;18319;48.974;8.462;2023-06-26T12:46:59;28.40;43.30
31747;DHT22;18319;48.974;8.462;2023-06-26T12:49:30;28.30;42.10
31747;DHT22;18319;48.974;8.462;2023-06-26T12:51:59;28.40;42.20
31747;DHT22;18319;48.974;8.462;2023-06-26T12:54:26;28.30;43.10
31747;DHT22;18319;48.974;8.462;2023-06-26T12:56:53;28.30;42.30
31747;DHT22;18319;48.974;8.462;2023-06-26T12:59:20;28.30;42.70
31747;DHT22;18319;48.974;8.462;2023-06-26T13:01:48;28.40;43.40
31747;DHT22;18319;48.974;8.462;2023-06-26T13:04:16;28.50;43.90
31747;DHT22;18319;48.974;8.462;2023-06-26T13:06:43;28.50;42.90
31747;DHT22;18319;48.974;8.462;2023-06-26T13:09:10;28.50;42.00
31747;DHT22;18319;48.974;8.462;2023-06-26T13:11:37;28.20;42.10
31747;DHT22;18319;48.974;8.462;2023-06-26T13:14:04;28.30;41.40
31747;DHT22;18319;48.974;8.462;2023-06-26T13:16:31;28.40;42.90
31747;DHT22;18319;48.974;8.462;2023-06-26T13:18:59;28.60;42.60
31747;DHT22;18319;48.974;8.462;2023-06-26T13:21:27;29.00;42.50
31747;DHT22;18319;48.974;8.462;2023-06-26T13:23:54;28.80;42.70
31747;DHT22;18319;48.974;8.462;2023-06-26T13:26:21;28.70;42.30
31747;DHT22;18319;48.974;8.462;2023-06-26T13:28:48;28.40;42.60
31747;DHT22;18319;48.974;8.462;2023-06-26T13:31:15;28.30;41.60
31747;DHT22;18319;48.974;8.462;2023-06-26T13:33:41;28.20;41.10
31747;DHT22;18319;48.974;8.462;2023-06-26T13:36:11;28.10;44.20
31747;DHT22;18319;48.974;8.462;2023-06-26T13:38:39;28.00;42.20
31747;DHT22;18319;48.974;8.462;2023-06-26T13:41:06;28.00;41.00
31747;DHT22;18319;48.974;8.462;2023-06-26T13:43:32;28.00;42.10
31747;DHT22;18319;48.974;8.462;2023-06-26T13:46:00;28.00;42.30
31747;DHT22;18319;48.974;8.462;2023-06-26T13:48:28;28.20;43.30
31747;DHT22;18319;48.974;8.462;2023-06-26T13:50:55;28.20;42.50
31747;DHT22;18319;48.974;8.462;2023-06-26T13:53:24;28.40;43.60
31747;DHT22;18319;48.974;8.462;2023-06-26T13:55:50;28.40;44.10
31747;DHT22;18319;48.974;8.462;2023-06-26T13:58:17;28.40;41.10
31747;DHT22;18319;48.974;8.462;2023-06-26T14:00:48;28.40;41.50
31747;DHT22;18319;48.974;8.462;2023-06-26T14:03:15;28.40;41.50
31747;DHT22;18319;48.974;8.462;2023-06-26T14:05:43;28.20;41.50
31747;DHT22;18319;48.974;8.462;2023-06-26T14:08:09;28.10;41.00
31747;DHT22;18319;48.974;8.462;2023-06-26T14:10:38;28.20;42.10
31747;DHT22;18319;48.974;8.462;2023-06-26T14:13:05;28.00;40.80
31747;DHT22;18319;48.974;8.462;2023-06-26T14:15:33;28.00;43.70
31747;DHT22;18319;48.974;8.462;2023-06-26T14:18:01;28.00;42.70
31747;DHT22;18319;48.974;8.462;2023-06-26T14:20:28;27.80;42.60
31747;DHT22;18319;48.974;8.462;2023-06-26T14:22:58;27.90;42.70
31747;DHT22;18319;48.974;8.462;2023-06-26T14:25:25;28.00;42.70
31747;DHT22;18319;48.974;8.462;2023-06-26T14:27:55;28.10;41.10
31747;DHT22;18319;48.974;8.462;2023-06-26T14:30:21;28.00;42.60
31747;DHT22;18319;48.974;8.462;2023-06-26T14:32:48;27.90;42.90
31747;DHT22;18319;48.974;8.462;2023-06-26T14:35:15;28.00;42.40
31747;DHT22;18319;48.974;8.462;2023-06-26T14:37:42;27.80;42.00
31747;DHT22;18319;48.974;8.462;2023-06-26T14:40:10;27.70;43.90
31747;DHT22;18319;48.974;8.462;2023-06-26T14:42:37;27.60;43.30
31747;DHT22;18319;48.974;8.462;2023-06-26T14:45:06;27.80;46.40
31747;DHT22;18319;48.974;8.462;2023-06-26T14:47:33;27.80;44.90
31747;DHT22;18319;48.974;8.462;2023-06-26T14:50:00;27.80;42.50
31747;DHT22;18319;48.974;8.462;2023-06-26T14:52:27;27.80;41.10
31747;DHT22;18319;48.974;8.462;2023-06-26T14:54:53;27.50;39.90
31747;DHT22;18319;48.974;8.462;2023-06-26T14:57:20;27.40;40.50
31747;DHT22;18319;48.974;8.462;2023-06-26T14:59:47;27.30;42.40
31747;DHT22;18319;48.974;8.462;2023-06-26T15:02:15;27.30;40.10
31747;DHT22;18319;48.974;8.462;2023-06-26T15:04:42;27.20;40.30
31747;DHT22;18319;48.974;8.462;2023-06-26T15:07:08;27.40;40.60
31747;DHT22;18319;48.974;8.462;2023-06-26T15:09:35;27.60;40.90
31747;DHT22;18319;48.974;8.462;2023-06-26T15:12:02;27.60;41.10
31747;DHT22;18319;48.974;8.462;2023-06-26T15:14:29;27.70;41.50
31747;DHT22;18319;48.974;8.462;2023-06-26T15:16:56;27.70;38.80
31747;DHT22;18319;48.974;8.462;2023-06-26T15:19:24;27.60;37.60
31747;DHT22;18319;48.974;8.462;2023-06-26T15:21:50;27.50;37.70
31747;DHT22;18319;48.974;8.462;2023-06-26T15:24:17;27.30;37.60
31747;DHT22;18319;48.974;8.462;2023-06-26T15:26:44;27.20;35.50
31747;DHT22;18319;48.974;8.462;2023-06-26T15:29:11;27.30;35.10
31747;DHT22;18319;48.974;8.462;2023-06-26T15:31:40;27.30;35.50
31747;DHT22;18319;48.974;8.462;2023-06-26T15:34:07;27.20;33.50
31747;DHT22;18319;48.974;8.462;2023-06-26T15:36:35;27.40;38.00